Albion, Rhode Island
Current Conditions -  °F | °C
As of 1:55 PM on Tuesday 27 Jan 2015 (Local Time) from KSFZ Reporting Station
Overcast Overcast  
Wind Chill:   Ceiling: 1200
Heat Index: 18°   Visibility: 1mi
Dew Point:   Wind: 21mph
Humidity: 63%   Direction: 350°N
Pressure: 29.46"   Gusts: 33mph
Location:  41.95°N, 71.45°W
Report Text: KSFZ 271855Z 35018G29KT 1SM BKN012 OVC021 M08/M14 A2946 RMK AO1
Loading
Personal Weather Stations






























Interactive Weather Map New forecast layout! Learn more

10-Day Weather Forecast

Advertisements
Track Severe Weather on mobile